| Ora | Descriere | Temp | Se simte | Precipitatii | Umiditate | Vant |
|---|---|---|---|---|---|---|
| 00:00 | 12.5° | 12° | 0% | 76% | W 7.9 KM/H | |
| 01:00 | 12.6° | 12.1° | 0% | 76% | WNW 7.9 KM/H | |
| 02:00 | Senin | 12.5° | 12° | 0% | 78% | NW 7.9 KM/H |
| 03:00 | Senin | 11.5° | 10.6° | 0% | 82% | NW 8.6 KM/H |
| 04:00 | Senin | 10.7° | 10° | 0% | 85% | NNW 7.6 KM/H |
| 05:00 | Senin | 10.5° | 9.9° | 0% | 86% | N 6.5 KM/H |
| 06:00 | 10.3° | 9.6° | 0% | 85% | NNE 6.8 KM/H | |
| 07:00 | Senin | 10.8° | 10° | 0% | 82% | NE 7.9 KM/H |
| 08:00 | Senin | 13.2° | 12.8° | 0% | 71% | NE 7.6 KM/H |
| 09:00 | Senin | 15.2° | 15.2° | 0% | 60% | ENE 7.9 KM/H |
| 10:00 | Senin | 17° | 17° | 0% | 52% | E 8.6 KM/H |
| 11:00 | Senin | 18.5° | 18.5° | 0% | 46% | E 9.7 KM/H |
| 12:00 | Senin | 19.5° | 19.5° | 0% | 42% | E 10.1 KM/H |
| 13:00 | Senin | 20.4° | 20.4° | 0% | 40% | E 10.4 KM/H |
| 14:00 | Senin | 21° | 21° | 0% | 38% | E 10.4 KM/H |
| 15:00 | Senin | 21.3° | 21.3° | 0% | 37% | E 9.7 KM/H |
| 16:00 | Senin | 21.5° | 21.6° | 0% | 36% | ESE 9.4 KM/H |
| 17:00 | Senin | 21.4° | 21.4° | 0% | 37% | ESE 8.6 KM/H |
| 18:00 | 21° | 21.1° | 0% | 38% | SE 8.3 KM/H | |
| 19:00 | 19.9° | 19.9° | 0% | 46% | SE 9.4 KM/H | |
| 20:00 | 18° | 18° | 0% | 50% | SSE 10.4 KM/H | |
| 21:00 | Senin | 17.1° | 17.1° | 0% | 51% | SSE 10.4 KM/H |
| 22:00 | Senin | 16.4° | 16.4° | 0% | 52% | S 10.4 KM/H |
| 23:00 | Senin | 15° | 14.5° | 0% | 54% | S 10.8 KM/H |